Juliaca, Peru
Current Conditions -  °F | °C
As of 12:00 PM on Wednesday 26 Nov 2014 (Local Time) from SPJL Reporting Station
Clear Clear  
Wind Chill: 64°   Ceiling: Unl
Heat Index: 64°   Visibility: 6mi
Dew Point: 21°   Wind: 6mph
Humidity: 19%   Direction: 330°NNW
Pressure: 30.53"   Gusts: NA
Location:  15.5°S, 70.14°W
Report Text: SPJL 261700Z 33005KT CAVOK 18/M06 Q1034 RMK PP000
Loading
Personal Weather Stations






























Interactive Weather Map New forecast layout! Learn more

10-Day Weather Forecast

Advertisements
Track Severe Weather on mobile